createdAt,value
2023-02-25T00:02:12.432Z,93819.41
2023-02-25T00:04:39.993Z,93822.47
2023-02-25T00:07:06.425Z,93814.31
2023-02-25T00:09:32.965Z,93804.72
2023-02-25T00:12:00.336Z,93820.91
2023-02-25T00:14:26.908Z,93823.78
2023-02-25T00:16:55.179Z,93827.81
2023-02-25T00:19:21.861Z,93822.50
2023-02-25T00:21:48.374Z,93827.28
2023-02-25T00:24:16.813Z,93829.31
2023-02-25T00:26:43.855Z,93844.63
2023-02-25T00:29:14.155Z,93848.34
2023-02-25T00:31:40.759Z,93848.56
2023-02-25T00:34:08.754Z,93848.31
2023-02-25T00:36:35.469Z,93848.41
2023-02-25T00:39:01.952Z,93847.06
2023-02-25T00:41:30.108Z,93843.00
2023-02-25T00:43:59.049Z,93850.25
2023-02-25T00:46:27.258Z,93857.28
2023-02-25T00:48:53.843Z,93864.69
2023-02-25T00:51:24.038Z,93880.84
2023-02-25T00:53:50.969Z,93881.13
2023-02-25T00:56:19.325Z,93895.34
2023-02-25T00:58:47.933Z,93908.97
2023-02-25T01:01:20.151Z,93895.91
2023-02-25T01:03:48.339Z,93888.19
2023-02-25T01:06:15.871Z,93883.84
2023-02-25T01:08:43.080Z,93879.50
2023-02-25T01:11:15.503Z,93887.59
2023-02-25T01:13:42.605Z,93902.19
2023-02-25T01:16:14.099Z,93901.34
2023-02-25T01:18:41.308Z,93908.75
2023-02-25T01:21:16.866Z,93900.44
2023-02-25T01:23:43.943Z,93899.91
2023-02-25T01:26:10.557Z,93896.00
2023-02-25T01:28:38.037Z,93897.09
2023-02-25T01:31:07.570Z,93883.41
2023-02-25T01:33:37.652Z,93888.03
2023-02-25T01:36:05.663Z,93895.28
2023-02-25T01:38:32.917Z,93891.78
2023-02-25T01:41:06.204Z,93894.75
2023-02-25T01:43:32.616Z,93889.88
2023-02-25T01:45:59.027Z,93900.63
2023-02-25T01:48:30.012Z,93894.59
2023-02-25T01:51:02.220Z,93891.78
2023-02-25T01:53:33.036Z,93889.00
2023-02-25T01:56:02.413Z,93908.63
2023-02-25T01:58:30.008Z,93911.06
2023-02-25T02:00:56.555Z,93913.88
2023-02-25T02:03:24.903Z,93916.22
2023-02-25T02:06:01.480Z,93910.31
2023-02-25T02:08:28.552Z,93903.75
2023-02-25T02:10:55.946Z,93907.53
2023-02-25T02:13:23.442Z,93905.63
2023-02-25T02:15:59.534Z,93899.66
2023-02-25T02:18:31.401Z,93909.09
2023-02-25T02:21:09.755Z,93899.38
2023-02-25T02:24:15.612Z,93902.69
2023-02-25T02:26:51.786Z,93905.72
2023-02-25T02:29:55.192Z,93915.88
2023-02-25T02:32:31.089Z,93898.88
2023-02-25T02:35:04.770Z,93910.88
2023-02-25T02:37:39.950Z,93898.88
2023-02-25T02:40:21.689Z,93897.34
2023-02-25T02:43:00.592Z,93912.66
2023-02-25T02:45:33.889Z,93910.56
2023-02-25T02:48:05.186Z,93919.25
2023-02-25T02:50:36.386Z,93924.34
2023-02-25T02:53:07.377Z,93920.41
2023-02-25T02:55:38.751Z,93919.41
2023-02-25T02:58:12.703Z,93920.66
2023-02-25T03:00:42.506Z,93924.78
2023-02-25T03:03:14.367Z,93938.16
2023-02-25T03:05:44.231Z,93919.38
2023-02-25T03:08:17.595Z,93925.91
2023-02-25T03:10:44.687Z,93928.09
2023-02-25T03:13:11.548Z,93931.81
2023-02-25T03:15:40.219Z,93920.97
2023-02-25T03:18:16.669Z,93907.88
2023-02-25T03:20:46.478Z,93918.09
2023-02-25T03:23:16.626Z,93902.25
2023-02-25T03:25:47.853Z,93908.22
2023-02-25T03:28:24.122Z,93913.69
2023-02-25T03:30:56.342Z,93921.28
2023-02-25T03:33:32.273Z,93923.63
2023-02-25T03:36:01.012Z,93925.25
2023-02-25T03:38:31.287Z,93918.66
2023-02-25T03:41:01.203Z,93913.84
2023-02-25T03:43:32.467Z,93917.59
2023-02-25T03:45:59.935Z,93917.16
2023-02-25T03:48:28.897Z,93913.25
2023-02-25T03:50:59.972Z,93928.78
2023-02-25T03:53:27.745Z,93926.19
2023-02-25T03:56:04.673Z,93913.41
2023-02-25T03:58:33.289Z,93930.19
2023-02-25T04:01:03.424Z,93937.09
2023-02-25T04:03:32.266Z,93942.81
2023-02-25T04:05:59.130Z,93941.81
2023-02-25T04:08:26.411Z,93943.66
2023-02-25T04:10:52.857Z,93952.44
2023-02-25T04:13:20.163Z,93948.59
2023-02-25T04:15:48.540Z,93951.63
2023-02-25T04:18:15.774Z,93947.69
2023-02-25T04:20:43.148Z,93953.19
2023-02-25T04:23:12.912Z,93960.31
2023-02-25T04:25:39.374Z,93956.34
2023-02-25T04:28:06.270Z,93943.31
2023-02-25T04:30:34.381Z,93949.59
2023-02-25T04:33:01.662Z,93946.19
2023-02-25T04:35:28.091Z,93954.25
2023-02-25T04:37:55.227Z,93939.09
2023-02-25T04:40:23.355Z,93938.16
2023-02-25T04:42:49.936Z,93941.69
2023-02-25T04:45:16.922Z,93945.31
2023-02-25T04:47:43.853Z,93952.13
2023-02-25T04:50:11.984Z,93950.34
2023-02-25T04:52:38.446Z,93964.50
2023-02-25T04:55:09.007Z,93964.13
2023-02-25T04:57:37.453Z,93958.19
2023-02-25T05:00:09.417Z,93966.88
2023-02-25T05:02:35.918Z,93963.63
2023-02-25T05:05:04.897Z,93968.03
2023-02-25T05:07:31.354Z,93974.19
2023-02-25T05:09:57.859Z,93979.56
2023-02-25T05:12:25.052Z,93975.53
2023-02-25T05:14:51.437Z,93989.75
2023-02-25T05:17:18.419Z,93977.66
2023-02-25T05:19:44.809Z,93974.63
2023-02-25T05:22:11.211Z,93990.25
2023-02-25T05:24:38.394Z,93983.72
2023-02-25T05:27:08.460Z,93983.66
2023-02-25T05:29:35.775Z,93994.06
2023-02-25T05:32:02.907Z,93982.06
2023-02-25T05:34:29.585Z,93984.72
2023-02-25T05:36:56.024Z,93984.75
2023-02-25T05:39:22.418Z,93987.13
2023-02-25T05:41:48.870Z,93998.66
2023-02-25T05:44:15.686Z,93999.09
2023-02-25T05:46:42.753Z,93998.53
2023-02-25T05:49:09.766Z,94007.78
2023-02-25T05:51:36.289Z,94006.53
2023-02-25T05:54:03.109Z,94014.69
2023-02-25T05:56:32.168Z,94014.56
2023-02-25T05:58:58.955Z,94029.72
2023-02-25T06:01:28.579Z,94017.38
2023-02-25T06:03:57.729Z,94020.75
2023-02-25T06:06:26.207Z,94028.22
2023-02-25T06:08:53.305Z,94026.69
2023-02-25T06:11:21.443Z,94023.44
2023-02-25T06:13:48.906Z,94026.44
2023-02-25T06:16:15.725Z,94021.41
2023-02-25T06:18:42.499Z,94028.97
2023-02-25T06:21:13.436Z,94024.88
2023-02-25T06:23:41.493Z,94033.06
2023-02-25T06:26:10.587Z,94033.19
2023-02-25T06:28:37.754Z,94034.97
2023-02-25T06:31:08.726Z,94042.38
2023-02-25T06:33:35.271Z,94046.94
2023-02-25T06:36:02.569Z,94031.56
2023-02-25T06:38:29.670Z,94041.31
2023-02-25T06:40:56.098Z,94047.84
2023-02-25T06:43:22.779Z,94055.78
2023-02-25T06:45:49.221Z,94065.75
2023-02-25T06:48:15.739Z,94043.72
2023-02-25T06:50:42.434Z,94044.38
2023-02-25T06:53:09.111Z,94048.66
2023-02-25T06:55:38.300Z,94058.78
2023-02-25T06:58:04.759Z,94066.38
2023-02-25T07:00:31.398Z,94059.41
2023-02-25T07:02:57.855Z,94055.31
2023-02-25T07:05:24.260Z,94071.69
2023-02-25T07:07:50.864Z,94075.69
2023-02-25T07:10:17.540Z,94073.72
2023-02-25T07:12:44.591Z,94063.19
2023-02-25T07:15:11.048Z,94068.09
2023-02-25T07:17:37.737Z,94071.25
2023-02-25T07:20:04.896Z,94077.22
2023-02-25T07:22:31.408Z,94084.66
2023-02-25T07:24:58.500Z,94077.94
2023-02-25T07:27:25.001Z,94072.16
2023-02-25T07:29:52.112Z,94071.38
2023-02-25T07:32:18.701Z,94071.84
2023-02-25T07:34:45.283Z,94067.63
2023-02-25T07:37:12.301Z,94068.91
2023-02-25T07:39:38.718Z,94057.69
2023-02-25T07:42:06.435Z,94074.91
2023-02-25T07:44:35.533Z,94060.88
2023-02-25T07:47:02.832Z,94058.41
2023-02-25T07:49:29.213Z,94069.41
2023-02-25T07:51:55.660Z,94081.44
2023-02-25T07:54:22.665Z,94079.19
2023-02-25T07:56:50.656Z,94076.50
2023-02-25T07:59:17.326Z,94081.41
2023-02-25T08:01:43.803Z,94087.84
2023-02-25T08:04:11.139Z,94087.00
2023-02-25T08:06:39.835Z,94068.19
2023-02-25T08:09:06.849Z,94074.38
2023-02-25T08:11:33.370Z,94084.19
2023-02-25T08:14:00.218Z,94077.03
2023-02-25T08:16:26.873Z,94081.47
2023-02-25T08:18:54.041Z,94066.09
2023-02-25T08:21:22.952Z,94073.69
2023-02-25T08:23:49.791Z,94072.13
2023-02-25T08:26:17.173Z,94069.09
2023-02-25T08:28:44.571Z,94068.19
2023-02-25T08:31:11.855Z,94055.38
2023-02-25T08:33:39.456Z,94062.78
2023-02-25T08:36:08.871Z,94065.94
2023-02-25T08:38:36.879Z,94068.38
2023-02-25T08:41:03.549Z,94072.19
2023-02-25T08:43:31.323Z,94072.75
2023-02-25T08:45:58.321Z,94068.59
2023-02-25T08:48:24.919Z,94072.47
2023-02-25T08:50:51.614Z,94075.56
2023-02-25T08:53:18.568Z,94078.38
2023-02-25T08:55:46.578Z,94075.63
2023-02-25T08:58:13.223Z,94076.66
2023-02-25T09:00:40.150Z,94072.25
2023-02-25T09:03:06.875Z,94074.41
2023-02-25T09:05:33.482Z,94077.88
2023-02-25T09:07:59.908Z,94073.50
2023-02-25T09:10:26.320Z,94086.72
2023-02-25T09:12:53.871Z,94089.09
2023-02-25T09:15:21.055Z,94086.13
2023-02-25T09:17:47.472Z,94079.28
2023-02-25T09:20:17.307Z,94085.25
2023-02-25T09:22:44.095Z,94105.22
2023-02-25T09:25:10.622Z,94096.63
2023-02-25T09:27:37.094Z,94076.34
2023-02-25T09:30:05.505Z,94091.41
2023-02-25T09:32:32.236Z,94105.00
2023-02-25T09:35:05.767Z,94093.94
2023-02-25T09:37:32.568Z,94087.13
2023-02-25T09:39:59.115Z,94081.09
2023-02-25T09:42:32.651Z,94086.06
2023-02-25T09:45:03.785Z,94073.75
2023-02-25T09:47:39.702Z,94091.78
2023-02-25T09:50:12.104Z,94092.81
2023-02-25T09:52:41.237Z,94091.69
2023-02-25T09:55:17.541Z,94089.03
2023-02-25T09:57:52.417Z,94085.22
2023-02-25T10:00:24.861Z,94082.06
2023-02-25T10:02:57.886Z,94099.78
2023-02-25T10:05:32.538Z,94089.31
2023-02-25T10:08:10.534Z,94092.34
2023-02-25T10:10:45.987Z,94090.34
2023-02-25T10:13:25.523Z,94089.31
2023-02-25T10:16:01.949Z,94106.97
2023-02-25T10:18:51.794Z,94110.56
2023-02-25T10:21:29.985Z,94099.94
2023-02-25T10:24:19.901Z,94090.97
2023-02-25T10:26:50.093Z,94089.78
2023-02-25T10:29:27.512Z,94086.72
2023-02-25T10:31:58.864Z,94086.28
2023-02-25T10:34:28.200Z,94087.56
2023-02-25T10:36:56.718Z,94079.75
2023-02-25T10:39:24.082Z,94086.59
2023-02-25T10:41:50.810Z,94083.59
2023-02-25T10:44:17.590Z,94083.88
2023-02-25T10:46:53.745Z,94088.09
2023-02-25T10:49:22.280Z,94086.94
2023-02-25T10:51:57.641Z,94070.47
2023-02-25T10:54:27.426Z,94079.16
2023-02-25T10:56:54.713Z,94076.53
2023-02-25T10:59:30.795Z,94065.09
2023-02-25T11:01:59.311Z,94069.59
2023-02-25T11:04:31.797Z,94063.34
2023-02-25T11:06:58.928Z,94052.81
2023-02-25T11:09:37.213Z,94052.72
2023-02-25T11:12:17.436Z,94049.47
2023-02-25T11:14:43.897Z,94043.72
2023-02-25T11:17:15.014Z,94056.69
2023-02-25T11:19:43.862Z,94046.09
2023-02-25T11:22:17.782Z,94033.03
2023-02-25T11:24:54.662Z,94037.50
2023-02-25T11:27:31.743Z,94031.31
2023-02-25T11:30:03.433Z,94027.56
2023-02-25T11:32:32.578Z,94022.16
2023-02-25T11:35:04.604Z,94032.88
2023-02-25T11:37:37.195Z,94015.34
2023-02-25T11:40:20.138Z,94030.88
2023-02-25T11:43:00.840Z,94011.78
2023-02-25T11:45:29.630Z,94019.19
2023-02-25T11:47:57.059Z,94017.25
2023-02-25T11:50:26.792Z,94014.28
2023-02-25T11:53:01.699Z,94021.34
2023-02-25T11:55:45.682Z,94009.00
2023-02-25T11:58:22.485Z,94002.97
2023-02-25T12:00:57.874Z,94009.31
2023-02-25T12:03:48.328Z,94013.75
2023-02-25T12:06:27.716Z,93996.81
2023-02-25T12:09:19.716Z,94010.22
2023-02-25T12:12:19.350Z,94001.94
2023-02-25T12:15:19.460Z,94008.03
2023-02-25T12:18:10.526Z,94007.78
2023-02-25T12:21:25.400Z,94002.25
2023-02-25T12:24:21.074Z,94017.34
2023-02-25T12:27:16.384Z,94008.28
2023-02-25T12:30:20.056Z,94010.66
2023-02-25T12:32:59.114Z,94006.16
2023-02-25T12:35:44.315Z,94001.59
2023-02-25T12:38:52.445Z,93969.31
2023-02-25T12:41:45.903Z,93991.25
2023-02-25T12:44:40.063Z,93991.69
2023-02-25T12:47:22.913Z,93988.19
2023-02-25T12:50:07.859Z,93995.78
2023-02-25T12:52:47.310Z,93996.41
2023-02-25T12:55:45.959Z,94018.00
2023-02-25T12:58:33.107Z,94017.56
2023-02-25T13:01:12.732Z,94013.19
2023-02-25T13:04:10.185Z,94015.00
2023-02-25T13:07:06.520Z,94002.28
2023-02-25T13:09:51.213Z,94010.38
2023-02-25T13:12:33.619Z,94002.25
2023-02-25T13:15:09.002Z,93995.25
2023-02-25T13:17:56.222Z,94004.06
2023-02-25T13:20:36.406Z,93999.13
2023-02-25T13:23:21.905Z,94008.44
2023-02-25T13:26:06.009Z,94015.19
2023-02-25T13:28:55.778Z,94006.50
2023-02-25T13:31:34.893Z,93997.50
2023-02-25T13:34:13.998Z,94000.94
2023-02-25T13:36:54.156Z,93992.22
2023-02-25T13:39:54.664Z,93996.22
2023-02-25T13:42:34.689Z,94002.31
2023-02-25T13:45:33.376Z,94011.69
2023-02-25T13:48:22.844Z,94004.69
2023-02-25T13:51:02.751Z,94001.75
2023-02-25T13:54:05.780Z,93998.47
2023-02-25T13:56:51.023Z,94003.22
2023-02-25T13:59:38.410Z,94000.63
2023-02-25T14:02:26.430Z,94003.31
2023-02-25T14:05:17.061Z,94007.09
2023-02-25T14:08:00.576Z,94003.03
2023-02-25T14:10:40.160Z,94000.63
2023-02-25T14:13:30.825Z,94006.66
2023-02-25T14:16:04.516Z,93984.41
2023-02-25T14:18:52.848Z,94011.69
2023-02-25T14:21:49.154Z,93996.69
2023-02-25T14:24:22.152Z,93997.28
2023-02-25T14:27:04.482Z,94009.06
2023-02-25T14:29:42.446Z,94009.44
2023-02-25T14:32:31.310Z,94009.50
2023-02-25T14:35:25.933Z,94015.03
2023-02-25T14:38:01.366Z,94018.47
2023-02-25T14:40:31.890Z,94023.69
2023-02-25T14:43:12.075Z,94026.63
2023-02-25T14:45:44.203Z,94014.63
2023-02-25T14:48:17.158Z,94026.25
2023-02-25T14:50:48.468Z,94030.69
2023-02-25T14:53:54.547Z,94039.56
2023-02-25T14:56:48.089Z,94023.19
2023-02-25T14:59:31.162Z,94036.22
2023-02-25T15:02:29.515Z,94025.09
2023-02-25T15:05:32.100Z,94031.69
2023-02-25T15:08:20.900Z,94028.19
2023-02-25T15:11:03.309Z,94036.53
2023-02-25T15:14:03.358Z,94032.44
2023-02-25T15:16:55.988Z,94032.94
2023-02-25T15:19:47.647Z,94033.31
2023-02-25T15:22:21.271Z,94040.56
2023-02-25T15:24:48.601Z,94033.81
2023-02-25T15:27:49.849Z,94031.69
2023-02-25T15:30:19.172Z,94039.25
2023-02-25T15:32:51.958Z,94046.25
2023-02-25T15:35:21.657Z,94037.97
2023-02-25T15:38:06.606Z,94054.56
2023-02-25T15:40:48.930Z,94057.19
2023-02-25T15:43:40.073Z,94049.59
2023-02-25T15:46:37.348Z,94051.81
2023-02-25T15:49:14.742Z,94056.72
2023-02-25T15:51:44.222Z,94054.56
2023-02-25T15:54:11.540Z,94053.00
2023-02-25T15:56:57.239Z,94058.59
2023-02-25T15:59:41.482Z,94057.09
2023-02-25T16:02:41.102Z,94062.53
2023-02-25T16:05:21.340Z,94064.88
2023-02-25T16:07:51.054Z,94060.16
2023-02-25T16:10:26.122Z,94070.13
2023-02-25T16:12:55.410Z,94068.28
2023-02-25T16:15:28.365Z,94071.25
2023-02-25T16:17:57.256Z,94077.53
2023-02-25T16:20:28.048Z,94075.97
2023-02-25T16:22:58.520Z,94054.06
2023-02-25T16:25:41.601Z,94092.75
2023-02-25T16:28:19.889Z,94068.38
2023-02-25T16:30:55.516Z,94074.66
2023-02-25T16:33:31.586Z,94104.44
2023-02-25T16:36:07.631Z,94078.16
2023-02-25T16:38:45.196Z,94064.63
2023-02-25T16:41:14.848Z,94080.44
2023-02-25T16:43:43.947Z,94085.03
2023-02-25T16:46:15.492Z,94093.44
2023-02-25T16:48:49.546Z,94087.31
2023-02-25T16:51:23.764Z,94094.31
2023-02-25T16:53:55.226Z,94108.53
2023-02-25T16:56:28.270Z,94106.34
2023-02-25T16:59:00.333Z,94107.47
2023-02-25T17:01:32.697Z,94106.88
2023-02-25T17:04:13.890Z,94109.91
2023-02-25T17:06:40.854Z,94116.53
2023-02-25T17:09:21.997Z,94105.53
2023-02-25T17:11:58.307Z,94099.88
2023-02-25T17:14:25.242Z,94106.69
2023-02-25T17:16:53.021Z,94101.81
2023-02-25T17:19:23.571Z,94107.66
2023-02-25T17:21:53.218Z,94111.66
2023-02-25T17:24:26.523Z,94122.72
2023-02-25T17:26:53.665Z,94122.47
2023-02-25T17:29:20.912Z,94132.31
2023-02-25T17:31:50.842Z,94151.00
2023-02-25T17:34:22.259Z,94139.03
2023-02-25T17:36:53.326Z,94149.75
2023-02-25T17:39:20.605Z,94152.28
2023-02-25T17:41:47.977Z,94158.19
2023-02-25T17:44:44.377Z,94166.53
2023-02-25T17:47:18.550Z,94164.38
2023-02-25T17:49:46.482Z,94163.13
2023-02-25T17:52:19.090Z,94169.31
2023-02-25T17:54:47.811Z,94168.06
2023-02-25T17:57:17.495Z,94178.69
2023-02-25T17:59:50.195Z,94200.41
2023-02-25T18:02:33.189Z,94194.69
2023-02-25T18:05:21.586Z,94214.91
2023-02-25T18:08:07.933Z,94202.22
2023-02-25T18:10:54.427Z,94207.66
2023-02-25T18:13:25.409Z,94192.25
2023-02-25T18:16:40.196Z,94214.06
2023-02-25T18:19:37.993Z,94223.88
2023-02-25T18:22:07.928Z,94247.84
2023-02-25T18:24:37.286Z,94220.72
2023-02-25T18:27:19.311Z,94220.88
2023-02-25T18:29:46.079Z,94222.13
2023-02-25T18:32:13.036Z,94216.44
2023-02-25T18:34:39.890Z,94207.75
2023-02-25T18:37:09.496Z,94213.44
2023-02-25T18:39:36.911Z,94214.19
2023-02-25T18:42:04.546Z,94206.00
2023-02-25T18:44:33.142Z,94204.09
2023-02-25T18:46:59.710Z,94208.66
2023-02-25T18:49:26.247Z,94203.28
2023-02-25T18:51:53.062Z,94133.75
2023-02-25T18:54:21.325Z,94196.38
2023-02-25T18:56:47.751Z,94211.03
2023-02-25T18:59:14.660Z,94212.13
2023-02-25T19:01:42.795Z,94213.56
2023-02-25T19:04:14.590Z,94210.72
2023-02-25T19:06:41.097Z,94204.09
2023-02-25T19:09:07.663Z,94198.28
2023-02-25T19:11:37.191Z,94198.75
2023-02-25T19:14:05.108Z,94193.25
2023-02-25T19:16:31.875Z,94210.13
2023-02-25T19:18:58.527Z,94196.88
2023-02-25T19:21:25.009Z,94210.28
2023-02-25T19:23:52.942Z,94216.56
2023-02-25T19:26:19.912Z,94214.84
2023-02-25T19:28:47.137Z,94208.53
2023-02-25T19:31:14.071Z,94212.94
2023-02-25T19:33:43.455Z,94215.47
2023-02-25T19:36:11.242Z,94216.09
2023-02-25T19:38:38.078Z,94209.16
2023-02-25T19:41:05.835Z,94228.25
2023-02-25T19:43:33.400Z,94226.81
2023-02-25T19:46:00.685Z,94221.63
2023-02-25T19:48:27.476Z,94219.91
2023-02-25T19:50:54.696Z,94231.38
2023-02-25T19:53:21.269Z,94221.00
2023-02-25T19:55:47.944Z,94227.13
2023-02-25T19:58:14.966Z,94203.16
2023-02-25T20:00:46.786Z,94202.38
2023-02-25T20:03:14.893Z,94219.56
2023-02-25T20:05:41.796Z,94216.09
2023-02-25T20:08:08.721Z,94219.41
2023-02-25T20:10:35.254Z,94214.38
2023-02-25T20:13:01.940Z,94221.78
2023-02-25T20:15:28.419Z,94221.94
2023-02-25T20:17:56.722Z,94219.56
2023-02-25T20:20:24.534Z,94222.72
2023-02-25T20:22:51.250Z,94211.50
2023-02-25T20:25:18.598Z,94200.81
2023-02-25T20:27:45.199Z,94216.41
2023-02-25T20:30:14.036Z,94212.16
2023-02-25T20:32:41.612Z,94207.59
2023-02-25T20:35:15.107Z,94214.06
2023-02-25T20:37:53.747Z,94216.09
2023-02-25T20:40:20.504Z,94221.44
2023-02-25T20:42:47.127Z,94213.88
2023-02-25T20:45:15.048Z,94201.75
2023-02-25T20:47:41.851Z,94206.81
2023-02-25T20:50:10.216Z,94218.63
2023-02-25T20:52:37.034Z,94213.09
2023-02-25T20:55:06.735Z,94207.72
2023-02-25T20:57:33.622Z,94225.69
2023-02-25T21:00:01.342Z,94241.78
2023-02-25T21:02:27.933Z,94249.03
2023-02-25T21:04:54.447Z,94248.16
2023-02-25T21:07:21.086Z,94244.84
2023-02-25T21:09:47.931Z,94252.72
2023-02-25T21:12:15.098Z,94257.00
2023-02-25T21:14:41.542Z,94267.22
2023-02-25T21:17:08.668Z,94256.63
2023-02-25T21:19:36.567Z,94267.66
2023-02-25T21:22:03.098Z,94275.22
2023-02-25T21:24:32.901Z,94265.13
2023-02-25T21:26:59.953Z,94272.81
2023-02-25T21:29:27.193Z,94251.09
2023-02-25T21:31:53.737Z,94259.09
2023-02-25T21:34:20.381Z,94263.69
2023-02-25T21:36:46.817Z,94267.06
2023-02-25T21:39:13.422Z,94264.84
2023-02-25T21:41:42.661Z,94263.13
2023-02-25T21:44:11.423Z,94267.88
2023-02-25T21:46:41.253Z,94296.50
2023-02-25T21:49:09.750Z,94267.06
2023-02-25T21:51:36.767Z,94252.38
2023-02-25T21:54:05.975Z,94259.59
2023-02-25T21:56:35.112Z,94251.13
2023-02-25T21:59:05.018Z,94260.16
2023-02-25T22:01:33.861Z,94254.78
2023-02-25T22:04:01.469Z,94245.28
2023-02-25T22:06:28.699Z,94243.41
2023-02-25T22:08:56.329Z,94251.03
2023-02-25T22:11:25.094Z,94246.78
2023-02-25T22:13:52.036Z,94247.72
2023-02-25T22:16:22.423Z,94263.91
2023-02-25T22:18:49.624Z,94250.97
2023-02-25T22:21:18.945Z,94255.03
2023-02-25T22:23:47.572Z,94250.94
2023-02-25T22:26:15.694Z,94247.78
2023-02-25T22:28:43.745Z,94235.16
2023-02-25T22:31:11.245Z,94260.59
2023-02-25T22:33:38.909Z,94247.38
2023-02-25T22:36:06.729Z,94244.06
2023-02-25T22:38:36.211Z,94239.69
2023-02-25T22:41:03.373Z,94237.78
2023-02-25T22:43:30.438Z,94246.78
2023-02-25T22:46:04.727Z,94254.00
2023-02-25T22:48:31.328Z,94233.22
2023-02-25T22:50:57.868Z,94257.72
2023-02-25T22:53:24.306Z,94258.78
2023-02-25T22:55:51.541Z,94274.78
2023-02-25T22:58:17.978Z,94268.94
2023-02-25T23:00:44.381Z,94277.69
2023-02-25T23:03:11.148Z,94275.63
2023-02-25T23:05:37.783Z,94272.38
2023-02-25T23:08:08.146Z,94271.44
2023-02-25T23:10:35.415Z,94290.66
2023-02-25T23:13:07.294Z,94261.63
2023-02-25T23:15:34.735Z,94284.81
2023-02-25T23:18:02.858Z,94278.78
2023-02-25T23:20:30.603Z,94292.84
2023-02-25T23:23:02.885Z,94296.78
2023-02-25T23:25:34.821Z,94275.44
2023-02-25T23:28:03.841Z,94284.53
2023-02-25T23:30:30.446Z,94294.09
2023-02-25T23:32:57.302Z,94300.97
2023-02-25T23:35:24.184Z,94309.34
2023-02-25T23:37:50.800Z,94301.81
2023-02-25T23:40:18.416Z,94300.00
2023-02-25T23:42:45.612Z,94304.75
2023-02-25T23:45:15.809Z,94296.91
2023-02-25T23:47:42.886Z,94289.81
2023-02-25T23:50:11.603Z,94310.31
2023-02-25T23:52:38.444Z,94298.69
2023-02-25T23:55:05.881Z,94302.53
2023-02-25T23:57:32.691Z,94300.84
2023-02-25T23:59:59.109Z,94297.56
